Time;durP1;ratioP1;P1;durP2;ratioP2;P2;SDS_P1;SDS_P2;PMS_P1;PMS_P2;Temp;Humidity;BMP_temperature;BMP_pressure;BME280_temperature;BME280_humidity;BME280_pressure;Samples;Min_cycle;Max_cycle;Signal;HPM_P1;HPM_P2
2021/04/07 00:00:34;;;;;;;14.65;6.43;;;0.70;99.90;;;1.53;87.21;100267.31;5008730;28;20083;-85
2021/04/07 00:03:02;;;;;;;12.27;5.82;;;0.80;99.90;;;1.55;86.78;100265.06;5009005;28;20038;-84
2021/04/07 00:05:45;;;;;;;13.40;5.75;;;0.80;99.90;;;1.58;86.68;100260.88;4992353;28;20030;-85
2021/04/07 00:08:18;;;;;;;14.45;5.63;;;0.90;99.90;;;1.45;87.44;100268.00;5009369;28;20073;-85
2021/04/07 00:10:45;;;;;;;13.15;5.95;;;0.80;99.90;;;1.53;86.32;100267.31;4992327;28;20033;-86
2021/04/07 00:13:14;;;;;;;15.02;6.43;;;0.90;99.90;;;1.55;86.39;100278.81;4992290;28;20019;-85
2021/04/07 00:15:41;;;;;;;16.45;5.53;;;0.90;99.90;;;1.51;86.18;100265.97;5008646;28;20435;-85
2021/04/07 00:18:08;;;;;;;12.43;4.97;;;0.90;99.90;;;1.53;85.87;100267.31;4992322;28;20034;-87
2021/04/07 00:20:35;;;;;;;15.10;6.20;;;0.90;99.90;;;1.53;85.86;100272.00;4992672;28;20084;-85
2021/04/07 00:23:06;;;;;;;13.18;6.72;;;0.90;99.90;;;1.46;85.38;100258.66;5001155;28;20479;-86
2021/04/07 00:25:32;;;;;;;15.20;7.57;;;0.90;99.90;;;1.45;85.70;100268.00;5021218;28;20117;-85
2021/04/07 00:28:07;;;;;;;21.98;10.00;;;0.90;99.90;;;1.56;85.35;100266.69;5028816;28;20030;-87
2021/04/07 00:30:37;;;;;;;13.48;7.93;;;0.90;99.90;;;1.58;84.87;100275.44;5028636;28;20064;-85
2021/04/07 00:33:05;;;;;;;19.02;7.72;;;0.90;99.90;;;1.61;85.29;100273.22;5028480;28;20113;-85
2021/04/07 00:35:31;;;;;;;19.65;8.27;;;0.90;99.90;;;1.56;85.25;100269.44;5029259;28;20018;-86
2021/04/07 00:37:59;;;;;;;18.38;8.18;;;0.80;99.90;;;1.54;85.21;100273.63;5010755;28;20030;-86
2021/04/07 00:40:25;;;;;;;17.25;6.57;;;0.80;99.90;;;1.54;85.32;100271.66;5019970;28;20569;-85
2021/04/07 00:42:54;;;;;;;11.15;6.95;;;0.80;99.90;;;1.55;85.61;100269.75;5007591;28;20058;-86
2021/04/07 00:45:23;;;;;;;14.05;8.05;;;0.80;99.90;;;1.51;86.84;100276.97;5011945;28;20030;-86
2021/04/07 00:47:51;;;;;;;13.93;8.10;;;0.70;99.90;;;1.41;87.42;100283.50;5012875;28;20030;-87
2021/04/07 00:50:21;;;;;;;17.73;7.90;;;0.70;99.90;;;1.20;88.06;100273.22;4996033;28;20030;-85
2021/04/07 00:52:47;;;;;;;18.38;9.00;;;0.60;99.90;;;1.17;88.19;100276.59;5012238;28;20026;-86
2021/04/07 00:55:18;;;;;;;20.02;9.95;;;0.50;99.90;;;1.15;88.35;100274.16;4997159;28;20490;-87
2021/04/07 00:57:45;;;;;;;18.20;9.85;;;0.50;99.90;;;1.12;89.17;100283.00;4998801;28;20034;-86
2021/04/07 01:00:13;;;;;;;21.35;10.60;;;0.40;99.90;;;1.09;89.33;100282.81;5015546;28;20149;-86
2021/04/07 01:02:41;;;;;;;25.55;11.68;;;0.40;99.90;;;1.00;89.93;100277.16;5016856;28;20037;-85
2021/04/07 01:05:09;;;;;;;25.25;12.32;;;0.30;99.90;;;0.90;90.24;100280.13;5017591;28;20033;-85
2021/04/07 01:07:38;;;;;;;29.58;13.93;;;0.20;99.90;;;0.88;90.36;100285.94;5023685;28;20022;-87
2021/04/07 01:10:10;;;;;;;32.13;13.77;;;0.20;99.90;;;0.82;91.06;100284.38;5017108;28;20504;-87
2021/04/07 01:12:37;;;;;;;28.27;15.32;;;0.20;99.90;;;0.85;91.54;100285.72;5032939;28;20086;-88
2021/04/07 01:15:06;;;;;;;31.02;15.98;;;0.20;99.90;;;0.90;91.44;100288.38;5044942;28;20037;-86
2021/04/07 01:17:33;;;;;;;28.88;15.45;;;0.20;99.90;;;0.96;91.56;100298.97;5024155;28;20361;-86
2021/04/07 01:20:10;;;;;;;30.77;17.35;;;0.20;99.90;;;0.99;91.42;100287.38;5013711;28;20094;-86
2021/04/07 01:22:39;;;;;;;40.72;18.80;;;0.20;99.90;;;1.05;91.10;100277.91;5004937;28;20026;-84
2021/04/07 01:25:10;;;;;;;34.30;19.30;;;0.30;99.90;;;0.95;91.11;100280.84;5016147;28;20022;-88
2021/04/07 01:27:39;;;;;;;38.97;19.08;;;0.30;99.90;;;0.95;90.34;100275.34;5016760;28;20040;-87
2021/04/07 01:30:15;;;;;;;34.50;18.55;;;0.30;99.90;;;1.00;89.54;100286.25;5015217;28;20090;-85
2021/04/07 01:32:43;;;;;;;37.58;17.60;;;0.40;99.90;;;1.00;89.09;100285.41;5016904;28;20049;-87
2021/04/07 01:35:13;;;;;;;29.85;16.40;;;0.30;99.90;;;0.95;89.39;100274.53;5015863;28;20026;-85
2021/04/07 01:37:40;;;;;;;31.23;17.15;;;0.30;99.90;;;0.93;89.56;100268.53;5032174;28;20037;-85
2021/04/07 01:40:12;;;;;;;31.10;16.08;;;0.30;99.90;;;1.00;89.48;100278.00;5021407;28;20030;-85
2021/04/07 01:42:43;;;;;;;31.73;16.70;;;0.40;99.90;;;0.99;89.63;100272.81;5016569;28;20030;-86
2021/04/07 01:45:12;;;;;;;30.33;15.43;;;0.40;99.90;;;1.10;89.44;100281.66;5018160;28;20034;-86
2021/04/07 01:47:38;;;;;;;32.08;16.80;;;0.50;99.90;;;1.17;89.41;100282.09;5015683;28;20033;-86
2021/04/07 01:50:07;;;;;;;32.85;16.02;;;0.50;99.90;;;1.21;89.35;100296.88;5032656;28;20041;-86
2021/04/07 01:52:34;;;;;;;26.83;16.45;;;0.50;99.90;;;1.28;88.92;100286.28;5014750;28;20454;-88
2021/04/07 01:55:00;;;;;;;32.72;16.67;;;0.50;99.90;;;1.30;89.17;100295.84;5007029;28;20029;-86
2021/04/07 01:57:26;;;;;;;32.50;16.45;;;0.60;99.90;;;1.22;89.05;100276.50;5024648;28;20022;-83
2021/04/07 01:59:52;;;;;;;28.85;16.85;;;0.60;99.90;;;1.27;88.99;100279.13;5027915;28;20072;-88
2021/04/07 02:02:18;;;;;;;34.97;15.88;;;0.60;99.90;;;1.25;89.07;100281.38;5020443;28;20038;-86
2021/04/07 02:04:44;;;;;;;27.73;13.77;;;0.50;99.90;;;1.23;89.39;100289.94;4997377;28;20122;-86
2021/04/07 02:07:15;;;;;;;27.25;15.70;;;0.50;99.90;;;1.20;89.36;100278.72;5013024;28;20044;-83
2021/04/07 02:09:43;;;;;;;31.63;14.18;;;0.50;99.90;;;1.21;88.89;100275.69;5032892;28;20084;-86
2021/04/07 02:12:11;;;;;;;31.98;15.07;;;0.50;99.90;;;1.17;89.23;100293.91;5032089;28;20036;-86
2021/04/07 02:14:37;;;;;;;30.88;16.50;;;0.50;99.90;;;1.14;89.13;100288.19;5031731;28;20551;-85
2021/04/07 02:17:06;;;;;;;28.95;16.42;;;0.50;99.90;;;1.27;88.57;100288.22;5032167;28;20029;-86
2021/04/07 02:19:36;;;;;;;32.28;17.17;;;0.60;99.90;;;1.22;88.56;100277.28;5031615;28;20068;-86
2021/04/07 02:22:13;;;;;;;29.90;16.38;;;0.50;99.90;;;1.28;88.75;100295.34;5032014;28;20038;-85
2021/04/07 02:24:47;;;;;;;27.67;15.60;;;0.60;99.90;;;1.36;88.59;100286.38;5015842;28;20133;-85
2021/04/07 02:27:24;;;;;;;26.25;14.73;;;0.60;99.90;;;1.32;88.18;100290.84;5031804;28;20496;-85
2021/04/07 02:29:55;;;;;;;30.20;15.98;;;0.60;99.90;;;1.42;87.10;100296.16;5015222;28;20125;-88
2021/04/07 02:32:24;;;;;;;32.22;16.83;;;0.70;99.90;;;1.42;87.61;100296.16;5031413;28;20436;-86
2021/04/07 02:34:51;;;;;;;28.80;17.25;;;0.70;99.90;;;1.28;87.93;100292.59;5031103;28;20033;-87
2021/04/07 02:37:18;;;;;;;38.40;17.98;;;0.70;99.90;;;1.40;87.38;100286.56;5030701;28;20028;-85
2021/04/07 02:39:46;;;;;;;33.53;17.27;;;0.70;99.90;;;1.45;87.83;100291.97;5030494;28;20030;-83
2021/04/07 02:42:15;;;;;;;32.42;17.42;;;0.70;99.90;;;1.30;87.88;100279.34;5030328;28;20136;-87
2021/04/07 02:44:41;;;;;;;37.08;16.85;;;0.80;99.90;;;1.45;87.44;100279.03;5030609;28;20049;-85
2021/04/07 02:47:09;;;;;;;28.98;16.20;;;0.80;99.90;;;1.44;87.19;100277.41;5031225;28;20094;-84
2021/04/07 02:49:35;;;;;;;28.77;16.50;;;0.80;99.90;;;1.48;86.81;100272.91;5030590;28;20394;-87
2021/04/07 02:52:04;;;;;;;28.98;17.38;;;0.70;99.90;;;1.37;87.04;100278.94;5014769;28;20034;-85
2021/04/07 02:54:30;;;;;;;39.08;17.33;;;0.80;99.90;;;1.44;87.11;100273.84;5030609;28;20482;-86
2021/04/07 02:56:56;;;;;;;33.75;18.95;;;0.70;99.90;;;1.50;86.80;100270.69;5031949;28;20026;-86
2021/04/07 02:59:22;;;;;;;32.25;18.00;;;0.70;99.90;;;1.52;86.96;100276.69;5031733;28;20185;-86
2021/04/07 03:01:48;;;;;;;38.58;18.42;;;0.70;99.90;;;1.39;87.52;100279.44;5031169;28;20033;-85
2021/04/07 03:04:15;;;;;;;35.30;17.92;;;0.70;99.90;;;1.49;86.97;100276.47;5030749;28;20029;-87
2021/04/07 03:06:44;;;;;;;33.85;17.90;;;0.80;99.90;;;1.56;86.67;100283.22;5015758;28;20139;-86
2021/04/07 03:09:12;;;;;;;35.65;18.38;;;0.80;99.90;;;1.56;86.78;100283.22;5015399;28;20070;-88
2021/04/07 03:11:39;;;;;;;35.00;18.42;;;0.80;99.90;;;1.51;87.00;100283.31;5014161;28;20135;-86
2021/04/07 03:14:06;;;;;;;37.05;17.95;;;0.80;99.90;;;1.58;86.93;100294.72;5014311;28;20133;-85
2021/04/07 03:16:35;;;;;;;36.72;18.42;;;0.80;99.90;;;1.58;87.01;100289.22;5030444;28;20045;-84
2021/04/07 03:19:04;;;;;;;33.15;17.98;;;0.80;99.90;;;1.54;87.19;100288.19;5020517;28;20125;-87
2021/04/07 03:21:30;;;;;;;37.47;17.67;;;0.80;99.90;;;1.59;87.23;100293.59;5013451;28;20045;-86
2021/04/07 03:23:59;;;;;;;30.63;17.45;;;0.80;99.90;;;1.61;87.10;100295.25;5026064;28;20030;-85
2021/04/07 03:26:26;;;;;;;28.63;16.63;;;0.90;99.90;;;1.48;87.09;100292.16;5027472;28;20026;-87
2021/04/07 03:28:57;;;;;;;37.08;17.70;;;0.80;99.90;;;1.55;86.97;100284.31;5031119;28;20029;-86
2021/04/07 03:31:29;;;;;;;32.25;16.40;;;0.80;99.90;;;1.57;86.87;100281.28;5015448;28;20027;-85
2021/04/07 03:33:58;;;;;;;31.38;15.68;;;0.80;99.90;;;1.58;87.08;100288.38;5011086;28;20054;-85
2021/04/07 03:36:24;;;;;;;29.95;16.88;;;0.80;99.90;;;1.61;86.68;100281.47;5009922;28;20027;-83
2021/04/07 03:38:50;;;;;;;30.90;15.80;;;0.80;99.90;;;1.64;86.40;100278.09;5015553;28;20053;-87
2021/04/07 03:41:16;;;;;;;32.17;16.15;;;0.80;99.90;;;1.39;87.63;100280.25;5041804;28;20056;-86
2021/04/07 03:43:42;;;;;;;27.77;15.38;;;0.80;99.90;;;1.40;87.82;100278.31;5030487;28;20026;-86
2021/04/07 03:46:17;;;;;;;31.38;15.82;;;0.80;99.90;;;1.38;87.88;100281.38;5015692;28;20775;-86
2021/04/07 03:48:44;;;;;;;25.17;16.05;;;0.80;99.90;;;1.44;87.48;100279.34;5015263;28;20065;-85
2021/04/07 03:51:10;;;;;;;29.92;16.92;;;0.80;99.90;;;1.49;88.33;100282.81;5017042;28;20056;-86
2021/04/07 03:53:36;;;;;;;27.08;16.38;;;0.80;99.90;;;1.43;87.69;100269.44;5029212;28;20021;-86
2021/04/07 03:56:02;;;;;;;28.10;16.30;;;0.80;99.90;;;1.41;87.73;100279.97;5028657;28;20030;-86
2021/04/07 03:58:28;;;;;;;29.67;15.82;;;0.80;99.90;;;1.48;87.27;100281.16;5029776;28;20046;-86
2021/04/07 04:00:54;;;;;;;26.05;15.85;;;0.80;99.90;;;1.56;86.83;100285.97;5031461;28;20187;-86
2021/04/07 04:03:21;;;;;;;29.50;16.42;;;0.80;99.90;;;1.52;87.15;100281.38;5030302;28;20064;-87
2021/04/07 04:05:48;;;;;;;34.90;17.42;;;0.80;99.90;;;1.35;87.94;100278.44;5029838;28;20128;-84
2021/04/07 04:08:15;;;;;;;36.67;18.13;;;0.80;99.90;;;1.46;87.69;100272.41;5005048;28;20038;-85
2021/04/07 04:10:41;;;;;;;33.33;19.35;;;0.80;99.90;;;1.44;87.49;100280.16;5010510;28;20026;-86
2021/04/07 04:13:08;;;;;;;37.47;19.45;;;0.80;99.90;;;1.40;88.23;100295.66;5011211;28;20117;-86
2021/04/07 04:15:35;;;;;;;40.47;20.50;;;0.80;99.90;;;1.40;88.20;100276.41;5011152;28;20069;-86
2021/04/07 04:18:04;;;;;;;34.47;19.08;;;0.80;99.90;;;1.50;88.08;100292.69;5012680;28;20390;-85
2021/04/07 04:20:31;;;;;;;34.92;20.50;;;0.80;99.90;;;1.51;88.82;100294.31;5013728;28;20053;-86
2021/04/07 04:22:57;;;;;;;36.33;20.35;;;0.80;99.90;;;1.51;88.40;100277.78;5014554;28;20042;-85
2021/04/07 04:25:23;;;;;;;40.90;20.45;;;0.80;99.90;;;1.47;89.06;100284.25;4997373;28;20072;-83
2021/04/07 04:27:51;;;;;;;38.83;20.10;;;0.70;99.90;;;1.55;88.88;100287.06;5011968;28;20125;-85
2021/04/07 04:30:23;;;;;;;28.25;18.30;;;0.80;99.90;;;1.54;88.86;100292.91;5012597;28;20030;-87
2021/04/07 04:32:50;;;;;;;35.00;19.80;;;0.80;99.90;;;1.42;88.98;100290.66;4995637;28;20483;-85
2021/04/07 04:35:17;;;;;;;37.28;18.02;;;0.80;99.90;;;1.53;88.99;100285.75;5011993;28;20470;-86
2021/04/07 04:37:47;;;;;;;34.88;18.73;;;0.80;99.90;;;1.50;89.05;100298.19;4996457;28;20506;-84
2021/04/07 04:40:15;;;;;;;32.95;21.20;;;0.80;99.90;;;1.53;89.10;100297.59;5011023;28;20122;-83
2021/04/07 04:42:42;;;;;;;30.23;19.65;;;0.80;99.90;;;1.59;89.27;100298.28;5011847;28;20056;-82
2021/04/07 04:45:10;;;;;;;30.60;19.35;;;0.80;99.90;;;1.65;88.73;100299.00;4994838;28;20031;-85
2021/04/07 04:47:37;;;;;;;29.08;16.63;;;0.90;99.90;;;1.56;88.17;100296.16;4994874;28;20494;-87
2021/04/07 04:50:09;;;;;;;31.95;17.70;;;0.90;99.90;;;1.65;88.30;100291.56;5012570;28;20034;-85
2021/04/07 04:52:37;;;;;;;28.88;18.30;;;0.90;99.90;;;1.47;88.93;100293.31;5012626;28;20058;-83
2021/04/07 04:55:10;;;;;;;26.92;17.15;;;0.90;99.90;;;1.52;89.01;100282.19;5012794;28;20037;-87
2021/04/07 04:57:37;;;;;;;28.17;15.93;;;0.90;99.90;;;1.66;88.57;100286.88;5011421;28;20044;-85
2021/04/07 05:00:07;;;;;;;27.02;16.58;;;0.90;99.90;;;1.65;89.08;100288.78;4995368;28;20030;-82
2021/04/07 05:02:33;;;;;;;29.85;17.73;;;0.90;99.90;;;1.69;88.97;100286.25;5004711;28;20549;-85
2021/04/07 05:05:00;;;;;;;27.10;17.33;;;0.90;99.90;;;1.61;89.42;100284.22;5012624;28;20106;-84
2021/04/07 05:07:27;;;;;;;33.63;17.75;;;0.90;99.90;;;1.59;89.63;100290.84;5014234;28;20030;-84
2021/04/07 05:09:52;;;;;;;30.92;17.98;;;0.90;99.90;;;1.55;90.05;100292.56;5032805;28;20071;-86
2021/04/07 05:12:19;;;;;;;32.60;17.95;;;0.90;99.90;;;1.65;89.91;100287.97;5032882;28;20458;-85
2021/04/07 05:14:47;;;;;;;39.10;18.83;;;0.90;99.90;;;1.58;90.12;100291.97;5033247;28;20049;-85
2021/04/07 05:17:13;;;;;;;35.90;19.08;;;0.90;99.90;;;1.69;89.63;100298.09;5018346;28;20041;-84
2021/04/07 05:19:39;;;;;;;36.63;19.60;;;0.90;99.90;;;1.64;90.23;100300.13;5033516;28;20033;-85
2021/04/07 05:22:05;;;;;;;36.03;20.27;;;0.90;99.90;;;1.64;90.56;100289.13;5035528;28;20051;-86
2021/04/07 05:24:31;;;;;;;31.95;20.30;;;0.90;99.90;;;1.59;90.92;100284.53;5034267;28;20450;-85
2021/04/07 05:26:56;;;;;;;34.47;20.60;;;0.80;99.90;;;1.46;91.74;100291.66;5032069;28;20034;-84
2021/04/07 05:29:23;;;;;;;40.10;21.75;;;0.90;99.90;;;1.39;92.43;100291.25;5032663;28;20061;-84
2021/04/07 05:31:48;;;;;;;39.60;21.85;;;0.80;99.90;;;1.48;92.49;100286.66;5033086;28;20116;-85
2021/04/07 05:34:14;;;;;;;39.22;21.83;;;0.70;99.90;;;1.41;92.57;100290.97;5033009;28;20054;-84
2021/04/07 05:36:40;;;;;;;38.08;21.95;;;0.80;99.90;;;1.56;92.27;100288.72;5017864;28;20492;-83
2021/04/07 05:39:06;;;;;;;40.03;21.35;;;0.70;99.90;;;1.54;92.57;100290.16;5037431;28;20037;-83
2021/04/07 05:41:33;;;;;;;41.10;21.30;;;0.80;99.90;;;1.47;92.59;100282.31;5021205;28;20099;-84
2021/04/07 05:43:58;;;;;;;40.35;21.77;;;0.80;99.90;;;1.57;92.69;100286.78;5031570;28;20040;-84
2021/04/07 05:46:25;;;;;;;35.63;20.55;;;0.80;99.90;;;1.58;92.71;100291.16;5017183;28;20122;-83
2021/04/07 05:48:51;;;;;;;33.33;21.05;;;0.80;99.90;;;1.51;93.04;100285.22;5032568;28;20426;-83
2021/04/07 05:51:18;;;;;;;36.35;19.80;;;0.80;99.90;;;1.61;92.49;100295.25;5033265;28;20060;-84
2021/04/07 05:53:44;;;;;;;34.53;19.05;;;0.80;99.90;;;1.53;92.79;100294.84;5031634;28;20049;-85
2021/04/07 05:56:09;;;;;;;37.95;20.05;;;0.80;99.90;;;1.69;92.55;100291.75;5041490;22;20042;-84
2021/04/07 05:58:35;;;;;;;32.55;18.70;;;0.90;99.90;;;1.74;92.17;100292.44;5001676;28;20038;-85
2021/04/07 06:01:01;;;;;;;33.80;18.83;;;0.90;99.90;;;1.68;92.43;100282.69;5004007;28;20034;-84
2021/04/07 06:03:27;;;;;;;33.70;18.35;;;1.00;99.90;;;1.76;92.23;100290.22;5001932;28;20038;-82
2021/04/07 06:05:53;;;;;;;35.20;19.77;;;1.00;99.90;;;1.83;92.12;100276.81;4999145;28;20087;-81
2021/04/07 06:08:19;;;;;;;31.95;17.58;;;1.00;99.90;;;1.71;92.23;100290.31;5000180;28;20034;-81
2021/04/07 06:10:48;;;;;;;26.33;16.52;;;1.00;99.90;;;1.74;92.39;100283.38;4996768;28;20029;-85
2021/04/07 06:13:17;;;;;;;27.13;14.88;;;1.00;99.90;;;1.76;92.18;100290.22;4997274;28;20030;-86
2021/04/07 06:15:45;;;;;;;26.20;15.35;;;1.00;99.90;;;1.68;92.87;100285.44;4997683;28;20077;-85
2021/04/07 06:18:13;;;;;;;25.08;14.52;;;1.00;99.90;;;1.74;92.58;100284.19;4998076;28;20282;-83
2021/04/07 06:20:50;;;;;;;21.75;12.60;;;1.00;99.90;;;1.67;92.99;100280.25;4997651;28;20042;-80
2021/04/07 06:23:19;;;;;;;20.85;11.88;;;1.00;99.90;;;1.76;92.69;100284.72;4997390;28;20027;-85
2021/04/07 06:25:47;;;;;;;17.98;10.38;;;1.00;99.90;;;1.80;92.19;100282.97;4997346;28;20030;-82
2021/04/07 06:28:16;;;;;;;21.20;11.15;;;1.00;99.90;;;1.74;92.69;100272.34;4997681;28;20034;-83
2021/04/07 06:30:44;;;;;;;18.20;11.18;;;1.00;99.90;;;1.83;92.21;100284.31;4997783;28;20391;-81
2021/04/07 06:33:32;;;;;;;22.08;10.73;;;1.00;99.90;;;1.76;92.16;100279.22;4999859;28;20022;-84
2021/04/07 06:36:06;;;;;;;20.25;11.35;;;1.00;99.90;;;1.91;92.08;100275.28;4997646;28;20053;-84
2021/04/07 06:38:36;;;;;;;18.58;10.68;;;1.10;99.90;;;1.92;91.74;100271.41;4997860;28;20113;-81
2021/04/07 06:41:04;;;;;;;19.45;11.48;;;1.10;99.90;;;1.86;92.03;100278.16;4997962;28;20536;-85
2021/04/07 06:43:33;;;;;;;20.77;11.45;;;1.10;99.90;;;1.90;91.68;100271.72;4997705;28;20528;-83
2021/04/07 06:46:00;;;;;;;19.90;11.27;;;1.10;99.90;;;1.86;92.29;100267.94;4997791;28;20026;-83
2021/04/07 06:48:31;;;;;;;18.02;11.07;;;1.10;99.90;;;1.79;92.81;100273.09;4997813;28;20041;-83
2021/04/07 06:50:57;;;;;;;20.83;12.73;;;1.10;99.90;;;1.86;92.50;100278.16;4996566;28;20474;-81
2021/04/07 06:53:28;;;;;;;19.60;11.65;;;1.10;99.90;;;1.77;92.58;100264.31;4997231;28;20470;-83
2021/04/07 06:55:55;;;;;;;22.27;12.75;;;1.10;99.90;;;1.86;92.20;100247.88;4996618;28;20077;-84
2021/04/07 06:58:21;;;;;;;22.08;12.57;;;1.10;99.90;;;1.83;92.27;100254.78;4997572;28;20038;-85
2021/04/07 07:00:48;;;;;;;17.48;11.65;;;1.10;99.90;;;1.88;92.30;100270.41;4998250;28;20516;-84
2021/04/07 07:03:19;;;;;;;18.17;11.52;;;1.10;99.90;;;1.94;92.02;100261.72;4999797;28;20034;-84
2021/04/07 07:05:54;;;;;;;19.98;11.23;;;1.20;99.90;;;1.88;92.03;100260.22;4999547;28;20041;-84
2021/04/07 07:08:21;;;;;;;19.50;11.48;;;1.20;99.90;;;1.93;91.99;100259.25;5004815;28;20030;-82
2021/04/07 07:10:52;;;;;;;17.58;10.52;;;1.20;99.90;;;1.90;92.19;100265.38;5012646;28;20026;-81
2021/04/07 07:13:25;;;;;;;17.23;10.60;;;1.20;99.90;;;1.89;92.21;100256.34;5001418;28;20125;-85
2021/04/07 07:15:54;;;;;;;18.08;10.98;;;1.20;99.90;;;2.00;91.67;100268.75;5000273;28;20026;-86
2021/04/07 07:18:27;;;;;;;15.32;9.90;;;1.30;99.90;;;1.84;92.49;100269.38;4998359;28;20031;-81
2021/04/07 07:20:56;;;;;;;15.57;10.38;;;1.20;99.90;;;1.87;92.17;100255.00;5015549;28;20038;-85
2021/04/07 07:23:32;;;;;;;14.43;9.88;;;1.30;99.90;;;1.92;92.02;100261.22;5000973;28;20057;-85
2021/04/07 07:26:11;;;;;;;14.68;10.07;;;1.30;99.90;;;2.03;91.36;100257.09;4999831;28;20040;-86
2021/04/07 07:28:49;;;;;;;14.80;10.40;;;1.30;99.90;;;2.03;91.29;100270.06;5002251;28;20529;-83
2021/04/07 07:31:31;;;;;;;14.85;10.55;;;1.40;99.90;;;1.82;91.58;100258.69;4999018;28;20443;-82
2021/04/07 07:34:02;;;;;;;15.30;9.38;;;1.30;99.90;;;1.99;91.75;100258.03;4998183;28;20026;-81
2021/04/07 07:36:34;;;;;;;15.52;10.43;;;1.40;99.90;;;1.85;92.42;100257.25;4998127;28;20022;-85
2021/04/07 07:39:00;;;;;;;14.88;10.50;;;1.40;99.90;;;2.07;91.65;100260.03;4998039;28;20027;-82
2021/04/07 07:41:35;;;;;;;17.33;10.98;;;1.40;99.90;;;2.06;91.94;100261.16;4999452;28;20099;-82
2021/04/07 07:44:05;;;;;;;16.13;11.80;;;1.40;99.90;;;2.07;91.78;100257.28;4999671;28;20022;-84
2021/04/07 07:46:35;;;;;;;17.98;11.90;;;1.50;99.90;;;2.19;91.24;100262.25;4998941;28;20489;-83
2021/04/07 07:49:17;;;;;;;16.23;11.50;;;1.50;99.90;;;2.09;91.95;100263.28;5000555;28;20034;-84
2021/04/07 07:51:49;;;;;;;16.17;10.75;;;1.50;99.90;;;2.25;91.19;100259.06;4998225;28;20072;-81
2021/04/07 07:54:19;;;;;;;17.83;11.60;;;1.60;99.90;;;2.32;91.51;100259.44;4998008;28;20041;-79
2021/04/07 07:56:45;;;;;;;17.85;11.73;;;1.60;99.90;;;2.22;91.33;100270.69;5001436;28;20022;-83
2021/04/07 07:59:12;;;;;;;17.10;12.23;;;1.60;99.90;;;2.31;90.67;100268.81;5002341;28;20057;-84
2021/04/07 08:01:48;;;;;;;17.40;11.57;;;1.70;99.90;;;2.25;91.18;100261.03;5003516;28;20393;-82
2021/04/07 08:04:14;;;;;;;18.40;12.85;;;1.70;99.90;;;2.07;91.63;100271.88;5015961;28;20079;-79
2021/04/07 08:06:40;;;;;;;16.92;12.63;;;1.70;99.90;;;2.25;90.68;100278.34;5018710;28;20022;-79
2021/04/07 08:09:06;;;;;;;18.40;12.60;;;1.60;99.90;;;2.21;90.74;100260.00;5014043;28;20424;-79
2021/04/07 08:11:34;;;;;;;21.00;13.00;;;1.70;99.90;;;2.28;91.20;100274.16;5013731;28;20034;-79
2021/04/07 08:14:02;;;;;;;15.93;12.13;;;1.60;99.90;;;2.25;90.80;100278.34;5013237;28;20033;-81
2021/04/07 08:16:31;;;;;;;15.52;11.85;;;1.70;99.90;;;2.26;90.90;100282.72;5005038;28;20049;-81
2021/04/07 08:18:59;;;;;;;15.52;12.07;;;1.70;99.90;;;2.23;90.99;100277.84;4997998;28;20034;-82
2021/04/07 08:21:26;;;;;;;16.08;11.43;;;1.60;99.90;;;2.18;91.14;100277.97;4996961;28;20121;-79
2021/04/07 08:24:02;;;;;;;16.50;11.57;;;1.60;99.90;;;2.30;91.14;100285.69;4999178;28;20037;-83
2021/04/07 08:26:36;;;;;;;18.95;12.15;;;1.70;99.90;;;2.08;92.31;100286.47;5000782;28;20157;-82
2021/04/07 08:29:06;;;;;;;16.10;11.88;;;1.60;99.90;;;2.32;91.63;100305.47;5001734;28;20034;-82
2021/04/07 08:31:35;;;;;;;17.75;12.90;;;1.70;99.90;;;2.47;91.11;100313.41;5000194;28;20061;-82
2021/04/07 08:34:09;;;;;;;16.83;12.55;;;1.70;99.90;;;2.40;91.49;100307.50;5001601;28;20251;-81
2021/04/07 08:36:36;;;;;;;17.42;12.98;;;1.70;99.90;;;2.36;91.56;100307.28;5002311;28;20032;-85
2021/04/07 08:39:09;;;;;;;16.42;12.13;;;1.70;99.90;;;2.43;91.58;100307.69;5001085;28;20034;-81
2021/04/07 08:41:37;;;;;;;14.60;11.90;;;1.80;99.90;;;2.53;90.81;100307.44;5002485;28;20038;-82
2021/04/07 08:44:05;;;;;;;16.08;12.63;;;1.90;99.90;;;2.60;90.98;100318.81;5011302;28;20039;-77
2021/04/07 08:46:50;;;;;;;16.85;11.88;;;1.90;99.90;;;2.56;89.93;100308.75;5014057;28;20053;-80
2021/04/07 08:49:39;;;;;;;13.15;11.43;;;2.00;99.90;;;2.51;90.80;100317.94;5012670;28;20041;-84
2021/04/07 08:52:47;;;;;;;15.20;11.77;;;1.90;99.90;;;2.58;90.73;100315.56;5002835;28;20034;-84
2021/04/07 08:55:26;;;;;;;13.38;10.77;;;1.90;99.90;;;2.80;90.23;100319.44;4995636;28;20050;-85
2021/04/07 08:58:05;;;;;;;12.43;9.90;;;2.00;99.90;;;2.71;89.95;100324.91;4982990;28;20039;-84
2021/04/07 09:00:35;;;;;;;14.50;9.68;;;2.00;99.90;;;2.73;90.36;100330.91;4981816;28;20081;-83
2021/04/07 09:03:28;;;;;;;13.38;10.45;;;2.00;99.90;;;2.75;90.52;100345.22;4981387;28;20038;-85
2021/04/07 09:05:54;;;;;;;16.67;12.13;;;2.10;99.90;;;2.61;90.97;100344.47;5014425;28;20528;-83
2021/04/07 09:08:28;;;;;;;16.67;12.77;;;2.00;99.90;;;2.61;91.20;100342.53;5001396;28;20169;-80
2021/04/07 09:10:58;;;;;;;18.05;13.30;;;2.00;99.90;;;2.71;90.92;100346.16;5001623;28;20050;-80
2021/04/07 09:13:35;;;;;;;17.65;12.88;;;2.00;99.90;;;2.82;91.34;100353.06;5002434;28;20033;-81
2021/04/07 09:16:06;;;;;;;19.02;13.63;;;2.10;99.90;;;2.81;90.96;100362.44;5001518;28;20034;-80
2021/04/07 09:18:44;;;;;;;19.15;13.35;;;2.10;99.90;;;2.88;91.06;100355.38;5001539;28;20042;-81
2021/04/07 09:21:30;;;;;;;20.65;14.38;;;2.10;99.90;;;3.04;91.24;100355.81;5000513;28;20066;-83
2021/04/07 09:23:58;;;;;;;22.23;14.50;;;2.30;99.90;;;3.11;91.56;100365.25;5017183;28;20018;-77
2021/04/07 09:26:31;;;;;;;19.27;14.07;;;2.40;99.90;;;3.06;90.83;100359.88;5007652;28;20566;-82
2021/04/07 09:28:57;;;;;;;20.98;14.57;;;2.40;99.90;;;3.03;91.64;100356.94;5000718;28;20520;-81
2021/04/07 09:31:32;;;;;;;20.80;13.90;;;2.40;99.90;;;3.18;91.10;100365.63;5000394;28;20038;-81
2021/04/07 09:33:58;;;;;;;18.73;13.43;;;2.50;99.90;;;3.09;91.06;100377.72;5002311;28;20052;-81
2021/04/07 09:36:38;;;;;;;22.92;16.63;;;2.50;99.90;;;3.22;91.35;100376.84;5000897;28;20026;-83
2021/04/07 09:39:12;;;;;;;23.20;15.60;;;2.60;99.90;;;3.36;91.34;100374.00;4999750;28;20041;-82
2021/04/07 09:41:44;;;;;;;22.02;14.35;;;2.60;99.90;;;3.61;90.84;100382.41;5000615;28;20041;-81
2021/04/07 09:44:14;;;;;;;24.20;15.48;;;2.70;99.90;;;3.72;89.03;100386.50;5001562;28;20034;-82
2021/04/07 09:46:40;;;;;;;26.58;15.18;;;3.00;99.90;;;3.96;89.48;100402.69;4982295;28;20026;-83
2021/04/07 09:49:10;;;;;;;21.65;13.93;;;3.10;99.90;;;4.27;89.21;100402.59;4979973;28;20546;-83
2021/04/07 09:51:48;;;;;;;25.55;14.48;;;3.40;99.90;;;4.61;88.74;100394.38;4981637;28;20030;-83
2021/04/07 09:54:30;;;;;;;19.48;13.77;;;3.80;99.90;;;4.64;87.52;100402.03;4980504;28;20034;-83
2021/04/07 09:57:07;;;;;;;22.15;14.27;;;3.90;99.90;;;4.90;86.90;100396.47;4982493;28;20027;-82
2021/04/07 09:59:41;;;;;;;22.30;14.88;;;4.10;99.90;;;4.96;87.15;100402.66;4982374;28;20035;-83
2021/04/07 10:02:14;;;;;;;24.83;15.07;;;4.20;99.90;;;4.83;86.44;100407.22;4984429;28;20054;-84
2021/04/07 10:04:46;;;;;;;23.55;15.43;;;4.10;99.90;;;4.64;86.77;100404.78;4997556;28;20027;-81
2021/04/07 10:07:25;;;;;;;21.88;15.75;;;4.00;99.90;;;4.19;87.59;100409.75;4987403;28;20026;-84
2021/04/07 10:09:55;;;;;;;24.92;16.88;;;3.80;99.90;;;4.43;88.49;100419.56;5002478;28;20054;-85
2021/04/07 10:12:34;;;;;;;25.92;16.38;;;3.80;99.90;;;4.42;88.49;100416.00;4997407;28;20025;-84
2021/04/07 10:15:04;;;;;;;25.63;17.75;;;3.80;99.90;;;4.53;88.34;100424.75;4998802;28;20034;-84
2021/04/07 10:17:40;;;;;;;25.17;17.90;;;3.80;99.90;;;4.34;88.05;100430.59;4999959;28;20124;-82
2021/04/07 10:20:15;;;;;;;26.05;18.08;;;3.80;99.90;;;4.68;87.46;100438.97;5001504;28;20077;-81
2021/04/07 10:22:46;;;;;;;25.23;17.90;;;4.00;99.90;;;4.78;86.85;100438.63;4999516;28;20555;-82